Terminal Aerodrome Forecast
Issued by NWS

Home | Current Version | Previous Version | Text Only | Print | Product List | Glossary On
Versions: 1 2 3 4 5 6 7 8 9 10 11 12 13 14 15 16 17 18 19 20 21
943
FTUS43 KICT 201720
TAFHUT
TAF
KHUT 201720Z 2018/2118 01010KT P6SM SKC
     FM210200 05005KT P6SM SCT060
     FM210500 11005KT P6SM BKN070
     FM210900 16010KT P6SM BKN070
     FM211600 18012G20KT P6SM SCT070=

USA.gov is the U.S. government's official web portal to all federal, state and local government web resources and services.